sensor_id;sensor_type;location;lat;lon;timestamp;pressure;altitude;pressure_sealevel;temperature
6498;BMP280;3282;48.358;10.958;2022-12-07T00:01:34;96134.00;;;4.64
6498;BMP280;3282;48.358;10.958;2022-12-07T00:04:03;96095.59;;;4.40
6498;BMP280;3282;48.358;10.958;2022-12-07T00:06:33;96131.84;;;4.66
6498;BMP280;3282;48.358;10.958;2022-12-07T00:09:00;96057.19;;;4.16
6498;BMP280;3282;48.358;10.958;2022-12-07T00:11:27;96126.97;;;4.68
6498;BMP280;3282;48.358;10.958;2022-12-07T00:13:56;96123.88;;;4.66
6498;BMP280;3282;48.358;10.958;2022-12-07T00:16:26;96075.66;;;4.34
6498;BMP280;3282;48.358;10.958;2022-12-07T00:18:53;96119.97;;;4.64
6498;BMP280;3282;48.358;10.958;2022-12-07T00:21:23;96103.53;;;4.49
6498;BMP280;3282;48.358;10.958;2022-12-07T00:23:51;96085.78;;;4.41
6498;BMP280;3282;48.358;10.958;2022-12-07T00:26:23;96126.34;;;4.71
6498;BMP280;3282;48.358;10.958;2022-12-07T00:28:55;96118.72;;;4.61
6498;BMP280;3282;48.358;10.958;2022-12-07T00:31:25;96111.72;;;4.56
6498;BMP280;3282;48.358;10.958;2022-12-07T00:33:52;96119.84;;;4.60
6498;BMP280;3282;48.358;10.958;2022-12-07T00:36:22;96132.75;;;4.62
6498;BMP280;3282;48.358;10.958;2022-12-07T00:38:53;96111.78;;;4.47
6498;BMP280;3282;48.358;10.958;2022-12-07T00:41:22;96109.25;;;4.51
6498;BMP280;3282;48.358;10.958;2022-12-07T00:43:50;96099.78;;;4.41
6498;BMP280;3282;48.358;10.958;2022-12-07T00:46:18;96126.09;;;4.55
6498;BMP280;3282;48.358;10.958;2022-12-07T00:48:46;96111.00;;;4.47
6498;BMP280;3282;48.358;10.958;2022-12-07T00:51:14;96098.09;;;4.37
6498;BMP280;3282;48.358;10.958;2022-12-07T00:53:41;96112.88;;;4.46
6498;BMP280;3282;48.358;10.958;2022-12-07T00:56:14;96122.66;;;4.55
6498;BMP280;3282;48.358;10.958;2022-12-07T00:58:41;96123.44;;;4.55
6498;BMP280;3282;48.358;10.958;2022-12-07T01:01:09;96104.31;;;4.41
6498;BMP280;3282;48.358;10.958;2022-12-07T01:03:36;96098.56;;;4.39
6498;BMP280;3282;48.358;10.958;2022-12-07T01:06:03;96088.28;;;4.28
6498;BMP280;3282;48.358;10.958;2022-12-07T01:08:30;96105.09;;;4.32
6498;BMP280;3282;48.358;10.958;2022-12-07T01:11:03;96120.81;;;4.46
6498;BMP280;3282;48.358;10.958;2022-12-07T01:13:31;96128.91;;;4.41
6498;BMP280;3282;48.358;10.958;2022-12-07T01:15:59;96121.63;;;4.38
6498;BMP280;3282;48.358;10.958;2022-12-07T01:18:28;96122.22;;;4.44
6498;BMP280;3282;48.358;10.958;2022-12-07T01:21:07;96137.19;;;4.40
6498;BMP280;3282;48.358;10.958;2022-12-07T01:23:35;96132.69;;;4.40
6498;BMP280;3282;48.358;10.958;2022-12-07T01:26:06;96107.59;;;4.29
6498;BMP280;3282;48.358;10.958;2022-12-07T01:28:33;96090.81;;;4.16
6498;BMP280;3282;48.358;10.958;2022-12-07T01:31:03;96059.09;;;3.98
6498;BMP280;3282;48.358;10.958;2022-12-07T01:33:35;96131.25;;;4.43
6498;BMP280;3282;48.358;10.958;2022-12-07T01:38:31;96126.91;;;4.38
6498;BMP280;3282;48.358;10.958;2022-12-07T01:40:59;96070.47;;;3.98
6498;BMP280;3282;48.358;10.958;2022-12-07T01:43:29;96115.53;;;4.29
6498;BMP280;3282;48.358;10.958;2022-12-07T01:45:57;96108.09;;;4.22
6498;BMP280;3282;48.358;10.958;2022-12-07T01:48:39;96132.19;;;4.38
6498;BMP280;3282;48.358;10.958;2022-12-07T01:51:11;96103.13;;;4.20
6498;BMP280;3282;48.358;10.958;2022-12-07T01:53:43;96109.34;;;4.25
6498;BMP280;3282;48.358;10.958;2022-12-07T01:56:14;96117.84;;;4.39
6498;BMP280;3282;48.358;10.958;2022-12-07T01:58:43;96087.56;;;4.19
6498;BMP280;3282;48.358;10.958;2022-12-07T02:01:11;96052.09;;;3.93
6498;BMP280;3282;48.358;10.958;2022-12-07T02:03:40;96121.63;;;4.38
6498;BMP280;3282;48.358;10.958;2022-12-07T02:06:09;96068.25;;;4.09
6498;BMP280;3282;48.358;10.958;2022-12-07T02:08:38;96092.22;;;4.22
6498;BMP280;3282;48.358;10.958;2022-12-07T02:11:07;96082.28;;;4.19
6498;BMP280;3282;48.358;10.958;2022-12-07T02:13:37;96103.88;;;4.30
6498;BMP280;3282;48.358;10.958;2022-12-07T02:16:18;96069.66;;;4.07
6498;BMP280;3282;48.358;10.958;2022-12-07T02:21:51;96106.81;;;4.37
6498;BMP280;3282;48.358;10.958;2022-12-07T02:24:33;96091.59;;;4.16
6498;BMP280;3282;48.358;10.958;2022-12-07T02:29:46;96102.81;;;4.22
6498;BMP280;3282;48.358;10.958;2022-12-07T02:32:17;96112.88;;;4.29
6498;BMP280;3282;48.358;10.958;2022-12-07T02:34:56;96110.91;;;4.26
6498;BMP280;3282;48.358;10.958;2022-12-07T02:40:06;96109.34;;;4.25
6498;BMP280;3282;48.358;10.958;2022-12-07T02:42:38;96080.59;;;4.05
6498;BMP280;3282;48.358;10.958;2022-12-07T02:45:07;96109.34;;;4.25
6498;BMP280;3282;48.358;10.958;2022-12-07T02:47:35;96104.03;;;4.25
6498;BMP280;3282;48.358;10.958;2022-12-07T02:50:05;96098.75;;;4.16
6498;BMP280;3282;48.358;10.958;2022-12-07T02:52:32;96101.41;;;4.16
6498;BMP280;3282;48.358;10.958;2022-12-07T02:54:58;96097.06;;;4.11
6498;BMP280;3282;48.358;10.958;2022-12-07T02:57:39;96098.13;;;4.10
6498;BMP280;3282;48.358;10.958;2022-12-07T03:00:11;96085.72;;;4.02
6498;BMP280;3282;48.358;10.958;2022-12-07T03:05:41;96095.34;;;4.15
6498;BMP280;3282;48.358;10.958;2022-12-07T03:08:43;96105.31;;;4.18
6498;BMP280;3282;48.358;10.958;2022-12-07T03:11:16;96054.56;;;3.90
6498;BMP280;3282;48.358;10.958;2022-12-07T03:14:05;96100.81;;;4.19
6498;BMP280;3282;48.358;10.958;2022-12-07T03:16:41;96097.38;;;4.18
6498;BMP280;3282;48.358;10.958;2022-12-07T03:19:13;96065.31;;;3.93
6498;BMP280;3282;48.358;10.958;2022-12-07T03:21:45;96090.66;;;4.12
6498;BMP280;3282;48.358;10.958;2022-12-07T03:24:15;96092.38;;;4.17
6498;BMP280;3282;48.358;10.958;2022-12-07T03:26:48;96088.47;;;4.14
6498;BMP280;3282;48.358;10.958;2022-12-07T03:29:49;96093.78;;;4.14
6498;BMP280;3282;48.358;10.958;2022-12-07T03:32:23;96107.78;;;4.23
6498;BMP280;3282;48.358;10.958;2022-12-07T03:34:57;96098.31;;;4.22
6498;BMP280;3282;48.358;10.958;2022-12-07T03:37:34;96105.47;;;4.22
6498;BMP280;3282;48.358;10.958;2022-12-07T03:42:31;96082.56;;;4.17
6498;BMP280;3282;48.358;10.958;2022-12-07T03:45:01;96056.44;;;3.98
6498;BMP280;3282;48.358;10.958;2022-12-07T03:47:42;96099.84;;;4.23
6498;BMP280;3282;48.358;10.958;2022-12-07T03:50:23;96052.22;;;3.97
6498;BMP280;3282;48.358;10.958;2022-12-07T03:52:56;96078.97;;;4.22
6498;BMP280;3282;48.358;10.958;2022-12-07T03:55:30;96073.38;;;4.15
6498;BMP280;3282;48.358;10.958;2022-12-07T03:58:01;96100.75;;;4.28
6498;BMP280;3282;48.358;10.958;2022-12-07T04:00:32;96023.19;;;3.79
6498;BMP280;3282;48.358;10.958;2022-12-07T04:03:00;96105.63;;;4.26
6498;BMP280;3282;48.358;10.958;2022-12-07T04:05:27;96013.06;;;3.64
6498;BMP280;3282;48.358;10.958;2022-12-07T04:07:54;96066.22;;;4.06
6498;BMP280;3282;48.358;10.958;2022-12-07T04:10:21;96058.94;;;3.94
6498;BMP280;3282;48.358;10.958;2022-12-07T04:12:48;96083.66;;;4.07
6498;BMP280;3282;48.358;10.958;2022-12-07T04:15:15;96097.84;;;4.20
6498;BMP280;3282;48.358;10.958;2022-12-07T04:17:42;95978.09;;;3.40
6498;BMP280;3282;48.358;10.958;2022-12-07T04:20:09;96083.66;;;4.16
6498;BMP280;3282;48.358;10.958;2022-12-07T04:22:44;95944.06;;;3.12
6498;BMP280;3282;48.358;10.958;2022-12-07T04:25:19;96083.53;;;4.04
6498;BMP280;3282;48.358;10.958;2022-12-07T04:27:52;95997.06;;;3.42
6498;BMP280;3282;48.358;10.958;2022-12-07T04:30:20;96063.78;;;3.92
6498;BMP280;3282;48.358;10.958;2022-12-07T04:32:52;95990.06;;;3.37
6498;BMP280;3282;48.358;10.958;2022-12-07T04:35:23;96091.47;;;4.04
6498;BMP280;3282;48.358;10.958;2022-12-07T04:37:51;96032.50;;;3.59
6498;BMP280;3282;48.358;10.958;2022-12-07T04:40:23;96079.00;;;3.95
6498;BMP280;3282;48.358;10.958;2022-12-07T04:42:54;96016.34;;;3.52
6498;BMP280;3282;48.358;10.958;2022-12-07T04:45:27;96016.34;;;3.52
6498;BMP280;3282;48.358;10.958;2022-12-07T04:47:57;95943.25;;;3.03
6498;BMP280;3282;48.358;10.958;2022-12-07T04:50:25;96091.47;;;4.04
6498;BMP280;3282;48.358;10.958;2022-12-07T04:52:57;95999.69;;;3.42
6498;BMP280;3282;48.358;10.958;2022-12-07T04:55:30;96057.41;;;3.76
6498;BMP280;3282;48.358;10.958;2022-12-07T04:58:02;96051.66;;;3.73
6498;BMP280;3282;48.358;10.958;2022-12-07T05:00:30;95968.16;;;3.19
6498;BMP280;3282;48.358;10.958;2022-12-07T05:02:57;96056.94;;;3.73
6498;BMP280;3282;48.358;10.958;2022-12-07T05:05:25;96064.72;;;3.79
6498;BMP280;3282;48.358;10.958;2022-12-07T05:07:53;96094.44;;;3.93
6498;BMP280;3282;48.358;10.958;2022-12-07T05:10:24;96053.97;;;3.66
6498;BMP280;3282;48.358;10.958;2022-12-07T05:12:51;96057.56;;;3.70
6498;BMP280;3282;48.358;10.958;2022-12-07T05:15:23;96017.63;;;3.45
6498;BMP280;3282;48.358;10.958;2022-12-07T05:17:53;95964.72;;;3.10
6498;BMP280;3282;48.358;10.958;2022-12-07T05:20:20;96079.19;;;3.90
6498;BMP280;3282;48.358;10.958;2022-12-07T05:22:49;96045.72;;;3.68
6498;BMP280;3282;48.358;10.958;2022-12-07T05:25:21;96038.44;;;3.65
6498;BMP280;3282;48.358;10.958;2022-12-07T05:27:55;96012.47;;;3.49
6498;BMP280;3282;48.358;10.958;2022-12-07T05:30:27;95985.28;;;3.31
6498;BMP280;3282;48.358;10.958;2022-12-07T05:32:54;95996.91;;;3.38
6498;BMP280;3282;48.358;10.958;2022-12-07T05:35:21;96032.66;;;3.62
6498;BMP280;3282;48.358;10.958;2022-12-07T05:37:49;96050.09;;;3.64
6498;BMP280;3282;48.358;10.958;2022-12-07T05:40:19;96067.22;;;3.75
6498;BMP280;3282;48.358;10.958;2022-12-07T05:42:54;96021.47;;;3.48
6498;BMP280;3282;48.358;10.958;2022-12-07T05:45:33;96039.69;;;3.58
6498;BMP280;3282;48.358;10.958;2022-12-07T05:48:00;96061.59;;;3.68
6498;BMP280;3282;48.358;10.958;2022-12-07T05:50:37;96039.09;;;3.53
6498;BMP280;3282;48.358;10.958;2022-12-07T05:53:17;96010.13;;;3.38
6498;BMP280;3282;48.358;10.958;2022-12-07T05:55:54;96082.16;;;3.80
6498;BMP280;3282;48.358;10.958;2022-12-07T05:58:21;96054.31;;;3.56
6498;BMP280;3282;48.358;10.958;2022-12-07T06:01:06;96025.06;;;3.34
6498;BMP280;3282;48.358;10.958;2022-12-07T06:03:35;96051.84;;;3.50
6498;BMP280;3282;48.358;10.958;2022-12-07T06:06:12;96037.50;;;3.43
6498;BMP280;3282;48.358;10.958;2022-12-07T06:08:50;96022.28;;;3.22
6498;BMP280;3282;48.358;10.958;2022-12-07T06:11:22;96016.38;;;3.16
6498;BMP280;3282;48.358;10.958;2022-12-07T06:14:13;96074.06;;;3.58
6498;BMP280;3282;48.358;10.958;2022-12-07T06:16:49;96033.94;;;3.30
6498;BMP280;3282;48.358;10.958;2022-12-07T06:19:24;96090.53;;;3.64
6498;BMP280;3282;48.358;10.958;2022-12-07T06:21:55;95956.47;;;2.76
6498;BMP280;3282;48.358;10.958;2022-12-07T06:24:39;96071.56;;;3.53
6498;BMP280;3282;48.358;10.958;2022-12-07T06:27:15;96029.91;;;3.23
6498;BMP280;3282;48.358;10.958;2022-12-07T06:29:53;96012.91;;;3.07
6498;BMP280;3282;48.358;10.958;2022-12-07T06:32:25;96013.69;;;3.07
6498;BMP280;3282;48.358;10.958;2022-12-07T06:34:59;96004.38;;;3.01
6498;BMP280;3282;48.358;10.958;2022-12-07T06:37:30;95957.56;;;2.66
6498;BMP280;3282;48.358;10.958;2022-12-07T06:40:00;96047.75;;;3.18
6498;BMP280;3282;48.358;10.958;2022-12-07T06:42:34;96037.66;;;3.11
6498;BMP280;3282;48.358;10.958;2022-12-07T06:45:01;96065.97;;;3.28
6498;BMP280;3282;48.358;10.958;2022-12-07T06:47:29;96064.25;;;3.23
6498;BMP280;3282;48.358;10.958;2022-12-07T06:50:07;96072.66;;;3.25
6498;BMP280;3282;48.358;10.958;2022-12-07T06:52:34;96025.97;;;2.94
6498;BMP280;3282;48.358;10.958;2022-12-07T06:55:02;96083.41;;;3.29
6498;BMP280;3282;48.358;10.958;2022-12-07T06:57:31;96008.22;;;2.86
6498;BMP280;3282;48.358;10.958;2022-12-07T06:59:58;96026.13;;;2.89
6498;BMP280;3282;48.358;10.958;2022-12-07T07:02:27;96017.06;;;2.81
6498;BMP280;3282;48.358;10.958;2022-12-07T07:04:54;95975.22;;;2.57
6498;BMP280;3282;48.358;10.958;2022-12-07T07:07:24;96054.59;;;3.10
6498;BMP280;3282;48.358;10.958;2022-12-07T07:09:51;95998.25;;;2.74
6498;BMP280;3282;48.358;10.958;2022-12-07T07:12:21;95998.25;;;2.65
6498;BMP280;3282;48.358;10.958;2022-12-07T07:14:48;96000.09;;;2.73
6498;BMP280;3282;48.358;10.958;2022-12-07T07:17:15;96032.66;;;3.00
6498;BMP280;3282;48.358;10.958;2022-12-07T07:19:41;96087.09;;;3.37
6498;BMP280;3282;48.358;10.958;2022-12-07T07:22:08;96066.59;;;3.25
6498;BMP280;3282;48.358;10.958;2022-12-07T07:24:34;96083.88;;;3.40
6498;BMP280;3282;48.358;10.958;2022-12-07T07:27:01;96053.06;;;3.18
6498;BMP280;3282;48.358;10.958;2022-12-07T07:29:28;96090.84;;;3.36
6498;BMP280;3282;48.358;10.958;2022-12-07T07:31:54;96088.38;;;3.40
6498;BMP280;3282;48.358;10.958;2022-12-07T07:34:21;96081.34;;;3.35
6498;BMP280;3282;48.358;10.958;2022-12-07T07:36:47;96072.97;;;3.33
6498;BMP280;3282;48.358;10.958;2022-12-07T07:39:14;96088.53;;;3.43
6498;BMP280;3282;48.358;10.958;2022-12-07T07:41:40;96072.06;;;3.29
6498;BMP280;3282;48.358;10.958;2022-12-07T07:44:12;96072.34;;;3.36
6498;BMP280;3282;48.358;10.958;2022-12-07T07:46:39;96096.94;;;3.45
6498;BMP280;3282;48.358;10.958;2022-12-07T07:49:05;96092.56;;;3.41
6498;BMP280;3282;48.358;10.958;2022-12-07T07:51:32;96099.28;;;3.47
6498;BMP280;3282;48.358;10.958;2022-12-07T07:53:59;96114.19;;;3.60
6498;BMP280;3282;48.358;10.958;2022-12-07T07:56:26;96080.13;;;3.41
6498;BMP280;3282;48.358;10.958;2022-12-07T07:58:52;96037.03;;;3.14
6498;BMP280;3282;48.358;10.958;2022-12-07T08:01:22;96109.06;;;3.64
6498;BMP280;3282;48.358;10.958;2022-12-07T08:03:49;96106.13;;;3.66
6498;BMP280;3282;48.358;10.958;2022-12-07T08:06:15;96102.22;;;3.63
6498;BMP280;3282;48.358;10.958;2022-12-07T08:08:42;96109.38;;;3.71
6498;BMP280;3282;48.358;10.958;2022-12-07T08:11:09;96116.25;;;3.72
6498;BMP280;3282;48.358;10.958;2022-12-07T08:13:36;96089.03;;;3.54
6498;BMP280;3282;48.358;10.958;2022-12-07T08:16:08;96115.16;;;3.73
6498;BMP280;3282;48.358;10.958;2022-12-07T08:18:36;96109.25;;;3.77
6498;BMP280;3282;48.358;10.958;2022-12-07T08:21:04;96122.47;;;3.77
6498;BMP280;3282;48.358;10.958;2022-12-07T08:23:33;96101.28;;;3.59
6498;BMP280;3282;48.358;10.958;2022-12-07T08:26:08;96117.31;;;3.62
6498;BMP280;3282;48.358;10.958;2022-12-07T08:28:36;96113.59;;;3.55
6498;BMP280;3282;48.358;10.958;2022-12-07T08:31:14;96106.28;;;3.52
6498;BMP280;3282;48.358;10.958;2022-12-07T08:33:42;96110.19;;;3.54
6498;BMP280;3282;48.358;10.958;2022-12-07T08:36:13;96100.50;;;3.49
6498;BMP280;3282;48.358;10.958;2022-12-07T08:38:44;96088.22;;;3.45
6498;BMP280;3282;48.358;10.958;2022-12-07T08:41:32;96094.63;;;3.53
6498;BMP280;3282;48.358;10.958;2022-12-07T08:43:59;96053.06;;;3.27
6498;BMP280;3282;48.358;10.958;2022-12-07T08:46:34;96106.13;;;3.66
6498;BMP280;3282;48.358;10.958;2022-12-07T08:49:16;96129.47;;;3.81
6498;BMP280;3282;48.358;10.958;2022-12-07T08:51:43;96139.09;;;3.86
6498;BMP280;3282;48.358;10.958;2022-12-07T08:54:15;96136.59;;;3.90
6498;BMP280;3282;48.358;10.958;2022-12-07T08:56:44;96120.56;;;3.86
6498;BMP280;3282;48.358;10.958;2022-12-07T08:59:14;96125.41;;;3.93
6498;BMP280;3282;48.358;10.958;2022-12-07T09:01:41;96130.72;;;3.93
6498;BMP280;3282;48.358;10.958;2022-12-07T09:04:08;96132.88;;;3.91
6498;BMP280;3282;48.358;10.958;2022-12-07T09:06:35;96121.34;;;3.86
6498;BMP280;3282;48.358;10.958;2022-12-07T09:09:03;96074.69;;;3.55
6498;BMP280;3282;48.358;10.958;2022-12-07T09:11:30;96041.69;;;3.35
6498;BMP280;3282;48.358;10.958;2022-12-07T09:14:00;96043.44;;;3.31
6498;BMP280;3282;48.358;10.958;2022-12-07T09:16:28;96091.19;;;3.70
6498;BMP280;3282;48.358;10.958;2022-12-07T09:19:01;96134.91;;;4.03
6498;BMP280;3282;48.358;10.958;2022-12-07T09:21:28;96137.09;;;4.09
6498;BMP280;3282;48.358;10.958;2022-12-07T09:23:58;96020.72;;;3.30
6498;BMP280;3282;48.358;10.958;2022-12-07T09:26:25;96093.03;;;3.87
6498;BMP280;3282;48.358;10.958;2022-12-07T09:28:52;96094.75;;;3.92
6498;BMP280;3282;48.358;10.958;2022-12-07T09:31:19;96108.28;;;4.08
6498;BMP280;3282;48.358;10.958;2022-12-07T09:33:56;96050.88;;;3.64
6498;BMP280;3282;48.358;10.958;2022-12-07T09:36:27;96093.81;;;3.96
6498;BMP280;3282;48.358;10.958;2022-12-07T09:38:54;96066.09;;;3.85
6498;BMP280;3282;48.358;10.958;2022-12-07T09:41:23;96058.50;;;3.83
6498;BMP280;3282;48.358;10.958;2022-12-07T09:43:51;96006.72;;;3.56
6498;BMP280;3282;48.358;10.958;2022-12-07T09:46:19;96127.38;;;4.49
6498;BMP280;3282;48.358;10.958;2022-12-07T09:48:48;96092.47;;;4.38
6498;BMP280;3282;48.358;10.958;2022-12-07T09:51:19;96101.31;;;4.51
6498;BMP280;3282;48.358;10.958;2022-12-07T09:53:52;96111.97;;;4.72
6498;BMP280;3282;48.358;10.958;2022-12-07T09:56:20;96091.41;;;4.69
6498;BMP280;3282;48.358;10.958;2022-12-07T09:58:48;96126.94;;;5.07
6498;BMP280;3282;48.358;10.958;2022-12-07T10:01:18;96081.78;;;4.95
6498;BMP280;3282;48.358;10.958;2022-12-07T10:04:00;96118.00;;;5.42
6498;BMP280;3282;48.358;10.958;2022-12-07T10:06:30;96068.75;;;5.32
6498;BMP280;3282;48.358;10.958;2022-12-07T10:08:57;96102.78;;;5.73
6498;BMP280;3282;48.358;10.958;2022-12-07T10:11:24;96110.66;;;6.03
6498;BMP280;3282;48.358;10.958;2022-12-07T10:13:54;96102.81;;;6.19
6498;BMP280;3282;48.358;10.958;2022-12-07T10:18:51;96080.38;;;6.54
6498;BMP280;3282;48.358;10.958;2022-12-07T10:21:20;96087.88;;;6.90
6498;BMP280;3282;48.358;10.958;2022-12-07T10:26:47;96094.59;;;7.25
6498;BMP280;3282;48.358;10.958;2022-12-07T10:31:53;96093.81;;;7.37
6498;BMP280;3282;48.358;10.958;2022-12-07T10:34:24;96090.31;;;7.49
6498;BMP280;3282;48.358;10.958;2022-12-07T10:36:52;96083.63;;;7.55
6498;BMP280;3282;48.358;10.958;2022-12-07T10:39:23;96057.97;;;7.34
6498;BMP280;3282;48.358;10.958;2022-12-07T10:42:01;96053.78;;;7.33
6498;BMP280;3282;48.358;10.958;2022-12-07T10:44:30;96058.66;;;7.31
6498;BMP280;3282;48.358;10.958;2022-12-07T10:47:13;96005.44;;;6.90
6498;BMP280;3282;48.358;10.958;2022-12-07T10:52:35;96079.97;;;7.18
6498;BMP280;3282;48.358;10.958;2022-12-07T10:57:43;96080.25;;;7.01
6498;BMP280;3282;48.358;10.958;2022-12-07T11:00:22;96030.97;;;6.66
6498;BMP280;3282;48.358;10.958;2022-12-07T11:13:26;96073.84;;;6.39
6498;BMP280;3282;48.358;10.958;2022-12-07T11:24:17;96056.78;;;6.28
6498;BMP280;3282;48.358;10.958;2022-12-07T11:37:37;96040.50;;;6.42
6498;BMP280;3282;48.358;10.958;2022-12-07T11:40:17;96041.72;;;6.44
6498;BMP280;3282;48.358;10.958;2022-12-07T11:42:51;96026.00;;;6.39
6498;BMP280;3282;48.358;10.958;2022-12-07T11:45:41;96037.88;;;6.54
6498;BMP280;3282;48.358;10.958;2022-12-07T11:48:19;96039.28;;;6.52
6498;BMP280;3282;48.358;10.958;2022-12-07T11:50:52;96010.97;;;6.43
6498;BMP280;3282;48.358;10.958;2022-12-07T11:55:58;96003.84;;;6.35
6498;BMP280;3282;48.358;10.958;2022-12-07T12:01:24;96023.81;;;6.41
6498;BMP280;3282;48.358;10.958;2022-12-07T12:03:56;96025.47;;;6.34
6498;BMP280;3282;48.358;10.958;2022-12-07T12:06:24;96020.50;;;6.32
6498;BMP280;3282;48.358;10.958;2022-12-07T12:08:54;96018.63;;;6.32
6498;BMP280;3282;48.358;10.958;2022-12-07T12:17:58;96012.28;;;6.25
6498;BMP280;3282;48.358;10.958;2022-12-07T12:20:40;96011.28;;;6.29
6498;BMP280;3282;48.358;10.958;2022-12-07T12:23:17;96012.94;;;6.34
6498;BMP280;3282;48.358;10.958;2022-12-07T12:25:48;95979.75;;;6.15
6498;BMP280;3282;48.358;10.958;2022-12-07T12:34:02;95987.72;;;6.15
6498;BMP280;3282;48.358;10.958;2022-12-07T12:36:53;95999.22;;;6.32
6498;BMP280;3282;48.358;10.958;2022-12-07T12:39:19;96003.19;;;6.38
6498;BMP280;3282;48.358;10.958;2022-12-07T12:52:46;95966.13;;;6.17
6498;BMP280;3282;48.358;10.958;2022-12-07T12:55:17;95997.66;;;6.31
6498;BMP280;3282;48.358;10.958;2022-12-07T12:58:29;95999.91;;;6.29
6498;BMP280;3282;48.358;10.958;2022-12-07T13:03:59;95996.13;;;6.30
6498;BMP280;3282;48.358;10.958;2022-12-07T13:08:58;95973.31;;;6.16
6498;BMP280;3282;48.358;10.958;2022-12-07T13:11:29;95994.91;;;6.27
6498;BMP280;3282;48.358;10.958;2022-12-07T13:17:11;95961.03;;;6.12
6498;BMP280;3282;48.358;10.958;2022-12-07T13:28:00;95973.53;;;6.24
6498;BMP280;3282;48.358;10.958;2022-12-07T13:30:28;95956.50;;;6.12
6498;BMP280;3282;48.358;10.958;2022-12-07T13:32:58;95963.47;;;6.17
6498;BMP280;3282;48.358;10.958;2022-12-07T13:37:55;95974.97;;;6.21
6498;BMP280;3282;48.358;10.958;2022-12-07T13:40:28;95971.44;;;6.17
6498;BMP280;3282;48.358;10.958;2022-12-07T13:43:04;95974.44;;;6.15
6498;BMP280;3282;48.358;10.958;2022-12-07T13:45:45;95908.81;;;5.66
6498;BMP280;3282;48.358;10.958;2022-12-07T13:48:32;95966.34;;;6.12
6498;BMP280;3282;48.358;10.958;2022-12-07T13:51:02;95970.25;;;6.14
6498;BMP280;3282;48.358;10.958;2022-12-07T13:53:46;95843.19;;;5.29
6498;BMP280;3282;48.358;10.958;2022-12-07T13:56:16;95901.16;;;5.77
6498;BMP280;3282;48.358;10.958;2022-12-07T13:58:46;95898.31;;;5.69
6498;BMP280;3282;48.358;10.958;2022-12-07T14:01:16;95951.31;;;6.03
6498;BMP280;3282;48.358;10.958;2022-12-07T14:03:43;95922.19;;;5.82
6498;BMP280;3282;48.358;10.958;2022-12-07T14:06:23;95972.00;;;6.10
6498;BMP280;3282;48.358;10.958;2022-12-07T14:09:17;95885.25;;;5.52
6498;BMP280;3282;48.358;10.958;2022-12-07T14:11:45;95858.00;;;5.30
6498;BMP280;3282;48.358;10.958;2022-12-07T14:14:19;95941.00;;;5.89
6498;BMP280;3282;48.358;10.958;2022-12-07T14:16:55;95957.47;;;5.95
6498;BMP280;3282;48.358;10.958;2022-12-07T14:19:45;95964.53;;;5.91
6498;BMP280;3282;48.358;10.958;2022-12-07T14:25:25;95961.03;;;5.87
6498;BMP280;3282;48.358;10.958;2022-12-07T14:27:55;95939.00;;;5.74
6498;BMP280;3282;48.358;10.958;2022-12-07T14:30:24;95958.47;;;5.90
6498;BMP280;3282;48.358;10.958;2022-12-07T14:33:07;95967.66;;;5.93
6498;BMP280;3282;48.358;10.958;2022-12-07T14:35:37;95962.25;;;5.89
6498;BMP280;3282;48.358;10.958;2022-12-07T14:38:03;95954.72;;;5.79
6498;BMP280;3282;48.358;10.958;2022-12-07T14:40:30;95938.13;;;5.69
6498;BMP280;3282;48.358;10.958;2022-12-07T14:43:01;95942.63;;;5.69
6498;BMP280;3282;48.358;10.958;2022-12-07T14:45:29;95962.91;;;5.86
6498;BMP280;3282;48.358;10.958;2022-12-07T14:48:03;95863.94;;;5.14
6498;BMP280;3282;48.358;10.958;2022-12-07T14:50:57;95960.47;;;5.81
6498;BMP280;3282;48.358;10.958;2022-12-07T14:53:51;95883.88;;;5.33
6498;BMP280;3282;48.358;10.958;2022-12-07T14:56:26;95839.94;;;4.98
6498;BMP280;3282;48.358;10.958;2022-12-07T14:59:02;95827.34;;;4.95
6498;BMP280;3282;48.358;10.958;2022-12-07T15:01:41;95946.53;;;5.72
6498;BMP280;3282;48.358;10.958;2022-12-07T15:04:15;95931.00;;;5.49
6498;BMP280;3282;48.358;10.958;2022-12-07T15:06:57;95957.09;;;5.59
6498;BMP280;3282;48.358;10.958;2022-12-07T15:09:24;95939.72;;;5.49
6498;BMP280;3282;48.358;10.958;2022-12-07T15:11:56;95959.09;;;5.62
6498;BMP280;3282;48.358;10.958;2022-12-07T15:14:22;95959.09;;;5.62
6498;BMP280;3282;48.358;10.958;2022-12-07T15:16:49;95952.47;;;5.56
6498;BMP280;3282;48.358;10.958;2022-12-07T15:19:35;95955.78;;;5.65
6498;BMP280;3282;48.358;10.958;2022-12-07T15:22:01;95959.56;;;5.64
6498;BMP280;3282;48.358;10.958;2022-12-07T15:24:28;95954.91;;;5.61
6498;BMP280;3282;48.358;10.958;2022-12-07T15:26:55;95908.19;;;5.35
6498;BMP280;3282;48.358;10.958;2022-12-07T15:29:21;95936.22;;;5.57
6498;BMP280;3282;48.358;10.958;2022-12-07T15:31:50;95951.59;;;5.64
6498;BMP280;3282;48.358;10.958;2022-12-07T15:34:25;95946.75;;;5.66
6498;BMP280;3282;48.358;10.958;2022-12-07T15:37:06;95953.59;;;5.67
6498;BMP280;3282;48.358;10.958;2022-12-07T15:39:35;95951.25;;;5.66
6498;BMP280;3282;48.358;10.958;2022-12-07T15:42:02;95947.56;;;5.58
6498;BMP280;3282;48.358;10.958;2022-12-07T15:44:29;95943.97;;;5.63
6498;BMP280;3282;48.358;10.958;2022-12-07T15:47:38;95924.47;;;5.46
6498;BMP280;3282;48.358;10.958;2022-12-07T15:50:28;95954.91;;;5.61
6498;BMP280;3282;48.358;10.958;2022-12-07T15:52:58;95885.59;;;5.16
6498;BMP280;3282;48.358;10.958;2022-12-07T15:55:26;95852.28;;;4.94
6498;BMP280;3282;48.358;10.958;2022-12-07T15:57:53;95860.81;;;5.00
6498;BMP280;3282;48.358;10.958;2022-12-07T16:00:19;95906.72;;;5.25
6498;BMP280;3282;48.358;10.958;2022-12-07T16:02:46;95919.63;;;5.27
6498;BMP280;3282;48.358;10.958;2022-12-07T16:05:13;95922.00;;;5.28
6498;BMP280;3282;48.358;10.958;2022-12-07T16:07:39;95930.84;;;5.32
6498;BMP280;3282;48.358;10.958;2022-12-07T16:10:07;95917.88;;;5.18
6498;BMP280;3282;48.358;10.958;2022-12-07T16:12:33;95951.75;;;5.34
6498;BMP280;3282;48.358;10.958;2022-12-07T16:15:00;95936.22;;;5.24
6498;BMP280;3282;48.358;10.958;2022-12-07T16:17:27;95939.09;;;5.18
6498;BMP280;3282;48.358;10.958;2022-12-07T16:19:54;95919.59;;;5.02
6498;BMP280;3282;48.358;10.958;2022-12-07T16:22:20;95937.09;;;5.15
6498;BMP280;3282;48.358;10.958;2022-12-07T16:24:47;95919.91;;;5.00
6498;BMP280;3282;48.358;10.958;2022-12-07T16:27:14;95928.00;;;5.04
6498;BMP280;3282;48.358;10.958;2022-12-07T16:29:40;95938.25;;;5.05
6498;BMP280;3282;48.358;10.958;2022-12-07T16:32:07;95909.59;;;4.86
6498;BMP280;3282;48.358;10.958;2022-12-07T16:34:33;95940.66;;;4.98
6498;BMP280;3282;48.358;10.958;2022-12-07T16:37:00;95913.84;;;4.78
6498;BMP280;3282;48.358;10.958;2022-12-07T16:39:31;95937.88;;;4.94
6498;BMP280;3282;48.358;10.958;2022-12-07T16:41:58;95875.72;;;4.49
6498;BMP280;3282;48.358;10.958;2022-12-07T16:44:24;95905.06;;;4.65
6498;BMP280;3282;48.358;10.958;2022-12-07T16:46:51;95922.56;;;4.79
6498;BMP280;3282;48.358;10.958;2022-12-07T16:49:18;95915.44;;;4.70